Flugplatz Nardt

Für EDAT sind keine METAR/TAF Berichte vorhanden.
Es werden die Flugwettermeldungen vom Flugplatz Dresden in 46 km Entfernung angezeigt.

Bericht für EDDC

vom 25.01. um 22:20 UTC

Wind 3 kt aus 100°

Sichtweite 4500 m

feuchter Dunst

aufgelockert bewölkt in 400 ft

aufgebrochene Bewölkung in 700 ft

Temperatur -3.0°C

Taupunkt -4.0°C

Luftfeuchtigkeit 93%

Luftdruck 1021 hPa

EDDC 252220Z 10003KT 4500 BR SCT004 BKN007 M03/M04 Q1021

Prognose für EDDC

vom 25.01. um 00:00 UTC

Zwischen 00:00 UTC und 00:00 UTC

Wind 5 kt aus 170°

Sichtweite 6000 m

aufgelockert bewölkt in 700 ft


Zwischen 00:00 UTC und 00:00 UTC zeitweise

Sichtweite 2500 m

feuchter Dunst

aufgebrochene Bewölkung in 700 ft


Zwischen 00:00 UTC und 00:00 UTC zeitweise mit einer Wahrscheinlichkeit von 30%

Sichtweite 400 m

Code: FZFG

aufgebrochene Bewölkung in 100 ft

TAF EDDC 251700Z 2518/2618 17005KT 6000 SCT007 TEMPO 2518/2524 2500 BR BKN007 PROB30 TEMPO 2519/2608 0400 FZFG BKN001
Impressum